Pagrindinis puslapis
METAR-TAF:

METAR-TAF

Oro uostai :

Mekoryuk, Aliaska, Jungtinės Amerikos Valstijos

platuma: 60-22N, ilguma: 166-16W, Aukštis: 15 m

Dabartinis oras

Ataskaita buvo paskelbta 41 minutes, ne 05:56 UTC
Ramus vėjas
Temperatūra -19°C
Drėgmė 77%
Slėgis 1016 hPa
Matomumas: 16.1 km
Giedras dangus

METAR: PAMY 280556Z AUTO 00000KT 10SM CLR M19/M22 A3000 RMK AO2 SLP162 T11891217 11089 21189 51020 FZRANO

Laikas: 21:37 (06:37 UTC)


TAF: trūkstamas

Orai ataskaitas ir orų prognozės (METAR, TAF).

turimą stotys yra geltonos ir raudonos taškus žemėlapyje.

Perkelti pele per norėdami pamatyti stoties vardą.

Tada spustelėkite, norėdami matyti oro stebėjimo ir prognozės.

Norėdami pakeisti žemėlapį: spustelėkite ant žalios mygtukų su juodo kryžiaus žemyn,; žalią mygtuką su brūkšneliu, jei norite nutolinti; arba žalių rodyklių gretimoms žemėlapius.


METAR-TAF: